Time;durP1;ratioP1;P1;durP2;ratioP2;P2;SDS_P1;SDS_P2;PMS_P1;PMS_P2;Temp;Humidity;BMP_temperature;BMP_pressure;BME280_temperature;BME280_humidity;BME280_pressure;Samples;Min_cycle;Max_cycle;Signal;HPM_P1;HPM_P2
2021/04/26 00:00:34;;;;;;;3.10;2.40;;;3.50;99.90;;;;;;2090101;28;20211;-65
2021/04/26 00:01:34;;;;;;;4.68;2.92;;;3.50;99.90;;;;;;2089888;28;20489;-64
2021/04/26 00:02:35;;;;;;;4.73;3.03;;;3.60;99.90;;;;;;2090162;28;20180;-64
2021/04/26 00:03:36;;;;;;;4.67;3.20;;;3.60;99.90;;;;;;2089375;28;20687;-64
2021/04/26 00:04:37;;;;;;;5.67;3.17;;;3.60;99.90;;;;;;2081404;28;20177;-64
2021/04/26 00:05:38;;;;;;;5.78;3.00;;;3.50;99.90;;;;;;2089471;28;20181;-65
2021/04/26 00:06:39;;;;;;;5.30;2.80;;;3.50;99.90;;;;;;2090178;28;20279;-65
2021/04/26 00:07:39;;;;;;;4.07;2.80;;;3.50;99.90;;;;;;2090075;28;20180;-64
2021/04/26 00:08:40;;;;;;;7.30;3.40;;;3.50;99.90;;;;;;2090225;28;20655;-65
2021/04/26 00:09:41;;;;;;;4.10;2.93;;;3.40;99.90;;;;;;2090073;28;20185;-65
2021/04/26 00:10:42;;;;;;;3.42;2.40;;;3.40;99.90;;;;;;2089663;28;20180;-64
2021/04/26 00:11:43;;;;;;;3.93;2.70;;;3.40;99.90;;;;;;2089164;28;20223;-65
2021/04/26 00:12:45;;;;;;;5.87;3.10;;;3.40;99.90;;;;;;2090094;28;20207;-64
2021/04/26 00:13:46;;;;;;;5.00;2.97;;;3.30;99.90;;;;;;2090136;28;20200;-64
2021/04/26 00:14:46;;;;;;;5.13;3.03;;;3.30;99.90;;;;;;2090215;28;20222;-64
2021/04/26 00:15:47;;;;;;;4.63;2.97;;;3.30;99.90;;;;;;2114230;22;20524;-70
2021/04/26 00:16:48;;;;;;;5.87;2.90;;;3.20;99.90;;;;;;2097494;28;20214;-72
2021/04/26 00:17:49;;;;;;;4.50;2.77;;;3.20;99.90;;;;;;2097763;28;20618;-72
2021/04/26 00:18:50;;;;;;;3.72;2.50;;;3.20;99.90;;;;;;2106171;28;20211;-71
2021/04/26 00:19:50;;;;;;;4.47;2.70;;;3.20;99.90;;;;;;2106196;28;20183;-71
2021/04/26 00:20:51;;;;;;;5.23;2.43;;;3.10;99.90;;;;;;2098473;28;20176;-71
2021/04/26 00:21:52;;;;;;;4.17;2.80;;;3.10;99.90;;;;;;2098055;28;20180;-71
2021/04/26 00:22:53;;;;;;;4.03;3.00;;;3.10;99.90;;;;;;2098694;28;20202;-72
2021/04/26 00:23:54;;;;;;;7.78;3.50;;;3.10;99.90;;;;;;2098601;28;20248;-71
2021/04/26 00:24:55;;;;;;;5.63;3.13;;;3.10;99.90;;;;;;2098420;28;20651;-72
2021/04/26 00:25:56;;;;;;;7.33;2.60;;;3.10;99.90;;;;;;2094190;28;20199;-72
2021/04/26 00:26:56;;;;;;;5.60;2.90;;;3.10;99.90;;;;;;2089949;28;20624;-71
2021/04/26 00:27:59;;;;;;;6.03;3.23;;;3.10;99.90;;;;;;2090077;28;20203;-71
2021/04/26 00:28:59;;;;;;;4.38;2.58;;;3.10;99.90;;;;;;2089421;28;20267;-71
2021/04/26 00:30:03;;;;;;;4.90;2.63;;;3.00;99.90;;;;;;2089529;28;20188;-71
2021/04/26 00:31:04;;;;;;;4.28;2.53;;;3.00;99.90;;;;;;2089379;28;20234;-71
2021/04/26 00:32:05;;;;;;;3.85;2.70;;;3.00;99.90;;;;;;2088988;28;20191;-71
2021/04/26 00:33:06;;;;;;;5.23;3.10;;;3.00;99.90;;;;;;2090126;28;20185;-71
2021/04/26 00:34:06;;;;;;;5.27;2.90;;;3.00;99.90;;;;;;2090101;28;20188;-71
2021/04/26 00:35:09;;;;;;;4.77;2.83;;;2.90;99.90;;;;;;2090111;28;20172;-72
2021/04/26 00:36:10;;;;;;;4.60;2.72;;;2.90;99.90;;;;;;2089162;28;20299;-71
2021/04/26 00:37:10;;;;;;;5.30;2.97;;;2.90;99.90;;;;;;2089391;28;20191;-72
2021/04/26 00:38:11;;;;;;;5.23;3.03;;;2.80;99.90;;;;;;2089951;28;20754;-72
2021/04/26 00:39:12;;;;;;;3.63;2.67;;;2.80;99.90;;;;;;2090149;28;20210;-71
2021/04/26 00:40:15;;;;;;;5.50;3.20;;;2.80;99.90;;;;;;2089692;28;20530;-72
2021/04/26 00:41:16;;;;;;;5.05;2.90;;;2.80;99.90;;;;;;2089712;28;20172;-71
2021/04/26 00:42:17;;;;;;;4.70;2.60;;;2.80;99.90;;;;;;2089962;28;20644;-71
2021/04/26 00:43:17;;;;;;;4.33;2.50;;;2.80;99.90;;;;;;2089767;28;20184;-71
2021/04/26 00:44:18;;;;;;;6.43;3.70;;;2.80;99.90;;;;;;2089969;28;20168;-71
2021/04/26 00:45:25;;;;;;;4.73;2.70;;;2.80;99.90;;;;;;2089946;28;20175;-71
2021/04/26 00:46:26;;;;;;;4.35;3.05;;;2.80;99.90;;;;;;2089465;28;20196;-71
2021/04/26 00:47:27;;;;;;;4.27;2.53;;;2.80;99.90;;;;;;2089329;28;20198;-72
2021/04/26 00:48:28;;;;;;;6.93;3.03;;;2.80;99.90;;;;;;2090127;28;20741;-71
2021/04/26 00:49:28;;;;;;;4.67;2.80;;;2.80;99.90;;;;;;2089895;28;20275;-71
2021/04/26 00:50:32;;;;;;;6.77;3.20;;;2.70;99.90;;;;;;2090036;28;20183;-72
2021/04/26 00:51:33;;;;;;;5.35;3.08;;;2.80;99.90;;;;;;2089653;28;20187;-71
2021/04/26 00:52:33;;;;;;;5.63;3.10;;;2.70;99.90;;;;;;2089364;28;20188;-72
2021/04/26 00:53:35;;;;;;;4.97;3.07;;;2.70;99.90;;;;;;2089360;28;20406;-71
2021/04/26 00:54:36;;;;;;;8.23;3.08;;;2.70;99.90;;;;;;2089255;28;20527;-71
2021/04/26 00:55:38;;;;;;;6.57;3.00;;;2.70;99.90;;;;;;2081068;28;20189;-71
2021/04/26 00:56:39;;;;;;;4.50;2.92;;;2.70;99.90;;;;;;2089395;28;20199;-71
2021/04/26 00:57:40;;;;;;;4.73;2.80;;;2.70;99.90;;;;;;2097433;28;20693;-71
2021/04/26 00:58:41;;;;;;;4.00;2.80;;;2.70;99.90;;;;;;2089901;28;20298;-71
2021/04/26 00:59:42;;;;;;;6.00;3.27;;;2.70;99.90;;;;;;2090111;28;20184;-71
2021/04/26 01:00:43;;;;;;;4.63;2.78;;;2.70;99.90;;;;;;2090015;28;20180;-71
2021/04/26 01:01:45;;;;;;;5.33;2.77;;;2.70;99.90;;;;;;2089091;28;20184;-71
2021/04/26 01:02:46;;;;;;;4.00;2.60;;;2.70;99.90;;;;;;2089339;28;20475;-71
2021/04/26 01:03:47;;;;;;;5.13;2.60;;;2.70;99.90;;;;;;2089892;28;20230;-71
2021/04/26 01:04:47;;;;;;;4.37;2.80;;;2.70;99.90;;;;;;2090178;28;20184;-71
2021/04/26 01:05:48;;;;;;;5.47;3.17;;;2.70;99.90;;;;;;2089963;28;20276;-71
2021/04/26 01:06:49;;;;;;;3.88;2.90;;;2.70;99.90;;;;;;2090222;28;20319;-71
2021/04/26 01:07:50;;;;;;;4.40;2.70;;;2.70;99.90;;;;;;2089927;28;20184;-71
2021/04/26 01:08:51;;;;;;;4.35;2.60;;;2.70;99.90;;;;;;2090102;28;20257;-71
2021/04/26 01:09:52;;;;;;;5.03;3.00;;;2.70;99.90;;;;;;2089689;28;20639;-72
2021/04/26 01:10:53;;;;;;;4.67;2.87;;;2.70;99.90;;;;;;2089883;28;20176;-71
2021/04/26 01:12:10;;;;;;;5.40;3.15;;;2.70;99.90;;;;;;2088800;28;20645;-71
2021/04/26 01:13:41;;;;;;;4.88;3.08;;;2.60;99.90;;;;;;2089682;28;20587;-71
2021/04/26 01:15:01;;;;;;;4.55;2.80;;;2.60;99.90;;;;;;2089599;28;20214;-71
2021/04/26 01:16:23;;;;;;;6.78;2.60;;;2.60;99.90;;;;;;2088860;28;20352;-71
2021/04/26 01:17:33;;;;;;;6.45;2.60;;;2.50;99.90;;;;;;2089493;28;20651;-71
2021/04/26 01:19:16;;;;;;;4.93;2.50;;;2.50;99.90;;;;;;2089121;28;20184;-71
2021/04/26 01:20:44;;;;;;;6.15;2.80;;;2.40;99.90;;;;;;2069148;28;20252;-71
2021/04/26 01:22:32;;;;;;;5.30;2.65;;;2.40;99.90;;;;;;2068445;28;20198;-72
2021/04/26 01:23:53;;;;;;;3.50;2.50;;;2.40;99.90;;;;;;2073613;28;20174;-71
2021/04/26 01:25:09;;;;;;;6.82;2.97;;;2.40;99.90;;;;;;2073315;28;20638;-71
2021/04/26 01:26:29;;;;;;;4.63;2.80;;;2.30;99.90;;;;;;2072803;28;20256;-71
2021/04/26 01:27:41;;;;;;;4.45;2.70;;;2.30;99.90;;;;;;2059249;28;20193;-71
2021/04/26 01:29:28;;;;;;;4.93;2.92;;;2.30;99.90;;;;;;2066461;28;20681;-72
2021/04/26 01:30:44;;;;;;;3.42;2.47;;;2.30;99.90;;;;;;2069164;28;20232;-72
2021/04/26 01:31:55;;;;;;;4.75;2.50;;;2.40;99.90;;;;;;2072638;28;20200;-71
2021/04/26 01:33:03;;;;;;;6.07;2.85;;;2.30;99.90;;;;;;2072694;28;20208;-71
2021/04/26 01:34:05;;;;;;;4.60;2.85;;;2.30;99.90;;;;;;2073544;28;20194;-72
2021/04/26 01:35:08;;;;;;;4.80;2.60;;;2.30;99.90;;;;;;2073453;28;20178;-71
2021/04/26 01:36:15;;;;;;;4.88;3.10;;;2.30;99.90;;;;;;2072546;28;20200;-71
2021/04/26 01:37:17;;;;;;;5.95;2.33;;;2.30;99.90;;;;;;2057324;28;20201;-71
2021/04/26 01:38:26;;;;;;;7.10;3.00;;;2.30;99.90;;;;;;2064591;28;20175;-71
2021/04/26 01:39:28;;;;;;;5.95;3.20;;;2.30;99.90;;;;;;2065652;28;20169;-71
2021/04/26 01:40:29;;;;;;;4.93;2.80;;;2.30;99.90;;;;;;2064841;28;20185;-71
2021/04/26 01:41:30;;;;;;;5.22;3.13;;;2.30;99.90;;;;;;2072365;28;20178;-71
2021/04/26 01:42:33;;;;;;;4.30;2.80;;;2.30;99.90;;;;;;2072729;28;20185;-71
2021/04/26 01:43:34;;;;;;;4.13;2.78;;;2.30;99.90;;;;;;2072783;28;20537;-71
2021/04/26 01:44:36;;;;;;;5.53;2.80;;;2.30;99.90;;;;;;2073019;28;20200;-71
2021/04/26 01:45:39;;;;;;;5.80;3.13;;;2.30;99.90;;;;;;2072622;28;20534;-72
2021/04/26 01:46:44;;;;;;;6.25;2.83;;;2.30;99.90;;;;;;2064534;28;20239;-71
2021/04/26 01:47:46;;;;;;;5.78;2.70;;;2.40;99.90;;;;;;2057411;28;20200;-71
2021/04/26 01:48:50;;;;;;;5.57;2.75;;;2.40;99.90;;;;;;2064845;28;20198;-71
2021/04/26 01:49:50;;;;;;;5.00;2.90;;;2.40;99.90;;;;;;2072590;28;20648;-71
2021/04/26 01:50:52;;;;;;;6.63;3.13;;;2.40;99.90;;;;;;2072420;28;20295;-71
2021/04/26 01:51:53;;;;;;;4.43;2.80;;;2.40;99.90;;;;;;2071891;28;20180;-72
2021/04/26 01:52:55;;;;;;;6.28;2.83;;;2.40;99.90;;;;;;2064172;28;20195;-73
2021/04/26 01:53:56;;;;;;;6.47;2.97;;;2.40;99.90;;;;;;2056459;28;20273;-71
2021/04/26 01:54:58;;;;;;;5.90;3.28;;;2.40;99.90;;;;;;2064444;28;20220;-71
2021/04/26 01:56:01;;;;;;;3.83;2.50;;;2.40;99.90;;;;;;2073088;28;20592;-71
2021/04/26 01:57:03;;;;;;;4.50;3.10;;;2.40;99.90;;;;;;2072659;28;20228;-71
2021/04/26 01:58:04;;;;;;;3.80;2.67;;;2.40;99.90;;;;;;2072669;28;20181;-71
2021/04/26 01:59:06;;;;;;;4.05;2.90;;;2.40;99.90;;;;;;2072746;28;20235;-71
2021/04/26 02:00:21;;;;;;;7.40;3.08;;;2.50;99.90;;;;;;2072880;28;20236;-71
2021/04/26 02:01:24;;;;;;;4.82;3.15;;;2.50;99.90;;;;;;2072843;28;20231;-71
2021/04/26 02:02:26;;;;;;;5.03;2.95;;;2.40;99.90;;;;;;2072693;28;20723;-71
2021/04/26 02:03:27;;;;;;;4.00;2.40;;;2.40;99.90;;;;;;2072377;28;20675;-71
2021/04/26 02:04:32;;;;;;;5.65;3.00;;;2.40;99.90;;;;;;2072733;28;20189;-71
2021/04/26 02:05:34;;;;;;;5.28;2.80;;;2.40;99.90;;;;;;2072758;28;20177;-71
2021/04/26 02:06:36;;;;;;;5.00;2.60;;;2.40;99.90;;;;;;2072588;28;20182;-71
2021/04/26 02:07:43;;;;;;;5.78;3.25;;;2.40;99.90;;;;;;2072924;28;20296;-71
2021/04/26 02:08:44;;;;;;;6.05;2.75;;;2.40;99.90;;;;;;2065290;28;20673;-71
2021/04/26 02:09:45;;;;;;;4.15;2.55;;;2.40;99.90;;;;;;2072889;28;20186;-71
2021/04/26 02:10:46;;;;;;;5.50;2.70;;;2.40;99.90;;;;;;2072644;28;20266;-71
2021/04/26 02:11:47;;;;;;;6.45;2.92;;;2.40;99.90;;;;;;2064423;28;20182;-71
2021/04/26 02:12:49;;;;;;;4.70;2.90;;;2.40;99.90;;;;;;2072515;28;20691;-71
2021/04/26 02:13:52;;;;;;;4.20;2.92;;;2.40;99.90;;;;;;2072689;28;20211;-71
2021/04/26 02:14:53;;;;;;;4.38;3.08;;;2.40;99.90;;;;;;2072310;28;20302;-71
2021/04/26 02:15:56;;;;;;;5.18;2.90;;;2.40;99.90;;;;;;2064466;28;20224;-71
2021/04/26 02:16:58;;;;;;;6.45;2.90;;;2.30;99.90;;;;;;2064593;28;20221;-71
2021/04/26 02:17:59;;;;;;;7.07;3.40;;;2.40;99.90;;;;;;2064712;28;20209;-71
2021/04/26 02:19:00;;;;;;;6.13;3.42;;;2.40;99.90;;;;;;2072458;28;20196;-71
2021/04/26 02:20:00;;;;;;;6.30;2.93;;;2.30;99.90;;;;;;2073120;28;20655;-71
2021/04/26 02:21:03;;;;;;;4.50;2.90;;;2.30;99.90;;;;;;2072618;28;20223;-71
2021/04/26 02:22:04;;;;;;;6.18;3.10;;;2.30;99.90;;;;;;2072037;28;20280;-72
2021/04/26 02:23:07;;;;;;;4.50;2.85;;;2.20;99.90;;;;;;2072221;28;20187;-71
2021/04/26 02:24:09;;;;;;;6.53;3.17;;;2.20;99.90;;;;;;2072958;28;20648;-71
2021/04/26 02:25:12;;;;;;;4.63;3.00;;;2.20;99.90;;;;;;2072779;28;20189;-71
2021/04/26 02:26:12;;;;;;;6.72;2.97;;;2.20;99.90;;;;;;2079926;28;20868;-71
2021/04/26 02:27:13;;;;;;;6.57;2.83;;;2.20;99.90;;;;;;2081146;28;20203;-71
2021/04/26 02:28:14;;;;;;;4.43;2.73;;;2.20;99.90;;;;;;2080572;28;20218;-71
2021/04/26 02:29:15;;;;;;;6.03;3.10;;;2.10;99.90;;;;;;2080533;28;20458;-71
2021/04/26 02:30:16;;;;;;;5.40;3.03;;;2.20;99.90;;;;;;2081040;28;20183;-71
2021/04/26 02:31:21;;;;;;;4.60;3.30;;;2.20;99.90;;;;;;2080369;28;20187;-71
2021/04/26 02:32:30;;;;;;;5.18;2.85;;;2.10;99.90;;;;;;2072910;28;20308;-71
2021/04/26 02:33:39;;;;;;;5.05;3.13;;;2.10;99.90;;;;;;2073572;28;20166;-71
2021/04/26 02:34:45;;;;;;;5.13;3.10;;;2.10;99.90;;;;;;2080809;28;20161;-71
2021/04/26 02:36:03;;;;;;;4.93;3.55;;;2.10;99.90;;;;;;2080288;28;20260;-71
2021/04/26 02:37:34;;;;;;;4.82;3.25;;;2.10;99.90;;;;;;2074751;28;20198;-71
2021/04/26 02:38:55;;;;;;;6.25;3.10;;;2.00;99.90;;;;;;2076536;28;20176;-71
2021/04/26 02:40:06;;;;;;;4.88;2.78;;;2.00;99.90;;;;;;2075268;28;20183;-71
2021/04/26 02:41:18;;;;;;;4.70;2.88;;;2.00;99.90;;;;;;2080824;28;20167;-71
2021/04/26 02:42:20;;;;;;;4.05;2.60;;;1.90;99.90;;;;;;2080512;28;20234;-71
2021/04/26 02:43:21;;;;;;;5.65;2.90;;;1.90;99.90;;;;;;2080568;28;20252;-71
2021/04/26 02:44:25;;;;;;;6.30;2.88;;;1.90;99.90;;;;;;2080675;28;20263;-71
2021/04/26 02:45:30;;;;;;;4.15;2.67;;;1.90;99.90;;;;;;2080635;28;20314;-71
2021/04/26 02:46:33;;;;;;;4.15;3.15;;;1.90;99.90;;;;;;2080324;28;20671;-71
2021/04/26 02:47:38;;;;;;;5.47;3.03;;;1.90;99.90;;;;;;2064803;28;20280;-72
2021/04/26 02:48:43;;;;;;;4.97;3.25;;;1.90;99.90;;;;;;2065157;28;20190;-72
2021/04/26 02:49:46;;;;;;;7.22;3.58;;;1.90;99.90;;;;;;2073084;28;20173;-71
2021/04/26 02:50:52;;;;;;;6.07;3.30;;;1.90;99.90;;;;;;2072808;28;20678;-71
2021/04/26 02:51:53;;;;;;;4.38;2.85;;;1.90;99.90;;;;;;2072634;28;20252;-71
2021/04/26 02:52:54;;;;;;;4.43;3.00;;;1.90;99.90;;;;;;2072389;28;20700;-71
2021/04/26 02:53:56;;;;;;;5.35;2.70;;;1.90;99.90;;;;;;2072520;28;20592;-71
2021/04/26 02:54:59;;;;;;;3.75;2.67;;;1.80;99.90;;;;;;2072573;28;20707;-71
2021/04/26 02:56:07;;;;;;;5.32;3.17;;;1.80;99.90;;;;;;2064607;28;20216;-71
2021/04/26 02:57:08;;;;;;;3.60;2.75;;;1.80;99.90;;;;;;2065988;28;20205;-71
2021/04/26 02:58:10;;;;;;;6.65;3.15;;;1.80;99.90;;;;;;2072279;28;20181;-71
2021/04/26 02:59:16;;;;;;;6.57;2.88;;;1.80;99.90;;;;;;2072215;28;20184;-71
2021/04/26 03:00:20;;;;;;;7.40;3.50;;;1.80;99.90;;;;;;2073343;28;20247;-71
2021/04/26 03:01:21;;;;;;;4.20;2.85;;;1.80;99.90;;;;;;2080333;28;20659;-71
2021/04/26 03:02:22;;;;;;;4.95;3.00;;;1.80;99.90;;;;;;2081105;28;20207;-71
2021/04/26 03:03:25;;;;;;;4.15;2.92;;;1.80;99.90;;;;;;2081183;28;20177;-71
2021/04/26 03:04:30;;;;;;;5.45;3.10;;;1.90;99.90;;;;;;2081906;28;20745;-71
2021/04/26 03:05:31;;;;;;;4.18;3.10;;;1.90;99.90;;;;;;2074255;28;20199;-70
2021/04/26 03:06:33;;;;;;;6.15;3.00;;;1.80;99.90;;;;;;2074331;28;20225;-71
2021/04/26 03:07:36;;;;;;;5.25;2.80;;;1.80;99.90;;;;;;2065690;28;20200;-71
2021/04/26 03:08:38;;;;;;;3.45;2.75;;;1.80;99.90;;;;;;2066327;28;20223;-71
2021/04/26 03:09:40;;;;;;;3.97;2.60;;;1.80;99.90;;;;;;2074041;28;20199;-71
2021/04/26 03:10:41;;;;;;;4.30;2.80;;;1.70;99.90;;;;;;2073880;28;20180;-71
2021/04/26 03:11:44;;;;;;;4.90;2.70;;;1.70;99.90;;;;;;2073674;28;20180;-71
2021/04/26 03:12:51;;;;;;;8.73;3.10;;;1.70;99.90;;;;;;2074124;28;20430;-71
2021/04/26 03:13:53;;;;;;;4.75;2.97;;;1.70;99.90;;;;;;2081979;28;20184;-71
2021/04/26 03:14:55;;;;;;;5.55;3.53;;;1.70;99.90;;;;;;2082052;28;20230;-74
2021/04/26 03:15:56;;;;;;;3.97;3.10;;;1.70;99.90;;;;;;2073843;28;20223;-70
2021/04/26 03:16:59;;;;;;;4.80;2.70;;;1.70;99.90;;;;;;2074047;28;20215;-71
2021/04/26 03:18:00;;;;;;;6.93;2.95;;;1.70;99.90;;;;;;2082021;28;20219;-71
2021/04/26 03:19:01;;;;;;;5.40;3.30;;;1.80;99.90;;;;;;2082013;28;20177;-71
2021/04/26 03:20:11;;;;;;;5.95;3.80;;;1.80;99.90;;;;;;2082013;28;20210;-71
2021/04/26 03:21:13;;;;;;;5.72;2.83;;;1.70;99.90;;;;;;2078511;28;20197;-71
2021/04/26 03:22:15;;;;;;;5.25;2.78;;;1.70;99.90;;;;;;2073576;28;20196;-71
2021/04/26 03:23:22;;;;;;;5.30;3.05;;;1.60;99.90;;;;;;2065839;28;20188;-72
2021/04/26 03:24:22;;;;;;;3.40;2.53;;;1.60;99.90;;;;;;2074463;28;20819;-71
2021/04/26 03:25:24;;;;;;;7.33;2.80;;;1.60;99.90;;;;;;2082183;28;20242;-71
2021/04/26 03:26:25;;;;;;;4.13;2.80;;;1.60;99.90;;;;;;2081724;28;20207;-71
2021/04/26 03:27:26;;;;;;;6.03;2.85;;;1.60;99.90;;;;;;2073557;28;20675;-71
2021/04/26 03:28:30;;;;;;;6.38;3.00;;;1.60;99.90;;;;;;2073644;28;20199;-71
2021/04/26 03:29:32;;;;;;;3.90;2.45;;;1.60;99.90;;;;;;2074101;28;20181;-71
2021/04/26 03:30:33;;;;;;;8.18;4.78;;;1.60;99.90;;;;;;2073490;28;20235;-71
2021/04/26 03:31:35;;;;;;;5.17;3.57;;;1.60;99.90;;;;;;2081640;28;20253;-71
2021/04/26 03:32:36;;;;;;;6.88;3.55;;;1.60;99.90;;;;;;2082599;28;20927;-71
2021/04/26 03:33:38;;;;;;;5.85;4.22;;;1.60;99.90;;;;;;2082058;28;20184;-71
2021/04/26 03:34:41;;;;;;;13.00;8.18;;;1.60;99.90;;;;;;2073642;28;20726;-70
2021/04/26 03:35:43;;;;;;;8.30;5.70;;;1.60;99.90;;;;;;2081721;28;20267;-71
2021/04/26 03:36:44;;;;;;;6.00;4.10;;;1.60;99.90;;;;;;2081566;28;20208;-71
2021/04/26 03:37:51;;;;;;;6.68;4.45;;;1.60;99.90;;;;;;2082280;28;20183;-71
2021/04/26 03:38:53;;;;;;;5.72;3.92;;;1.50;99.90;;;;;;2081480;28;20176;-71
2021/04/26 03:39:54;;;;;;;6.70;3.65;;;1.50;99.90;;;;;;2081623;28;20259;-70
2021/04/26 03:40:57;;;;;;;5.45;3.15;;;1.50;99.90;;;;;;2081263;28;20594;-70
2021/04/26 03:41:58;;;;;;;5.10;3.20;;;1.50;99.90;;;;;;2081377;28;20194;-74
2021/04/26 03:43:00;;;;;;;5.07;3.60;;;1.50;99.90;;;;;;2081652;28;20599;-70
2021/04/26 03:44:03;;;;;;;4.63;3.30;;;1.50;99.90;;;;;;2081837;28;20620;-71
2021/04/26 03:45:05;;;;;;;7.25;3.70;;;1.40;99.90;;;;;;2081543;28;20195;-71
2021/04/26 03:46:05;;;;;;;7.85;3.88;;;1.40;99.90;;;;;;2073247;28;20230;-71
2021/04/26 03:47:06;;;;;;;6.57;4.27;;;1.40;99.90;;;;;;2073441;28;20196;-71
2021/04/26 03:48:08;;;;;;;6.20;4.30;;;1.50;99.90;;;;;;2082288;28;20188;-70
2021/04/26 03:49:09;;;;;;;7.18;3.97;;;1.40;99.90;;;;;;2082123;28;20188;-71
2021/04/26 03:50:11;;;;;;;5.77;3.87;;;1.50;99.90;;;;;;2082171;28;20871;-70
2021/04/26 03:51:12;;;;;;;7.60;3.80;;;1.50;99.90;;;;;;2081787;28;20177;-70
2021/04/26 03:52:12;;;;;;;4.80;3.37;;;1.60;99.90;;;;;;2082436;28;20555;-71
2021/04/26 03:53:13;;;;;;;5.43;3.40;;;1.50;99.90;;;;;;2082398;28;20194;-71
2021/04/26 03:54:14;;;;;;;5.47;3.13;;;1.50;99.90;;;;;;2081861;28;20651;-71
2021/04/26 03:55:19;;;;;;;5.67;3.20;;;1.50;99.90;;;;;;2082099;28;20187;-71
2021/04/26 03:56:20;;;;;;;6.88;3.58;;;1.40;99.90;;;;;;2081266;28;20333;-71
2021/04/26 03:57:20;;;;;;;5.53;3.13;;;1.40;99.90;;;;;;2081350;28;20806;-71
2021/04/26 03:58:21;;;;;;;6.90;3.47;;;1.40;99.90;;;;;;2082006;28;20179;-70
2021/04/26 03:59:22;;;;;;;5.30;3.47;;;1.30;99.90;;;;;;2081998;28;20172;-71
2021/04/26 04:00:23;;;;;;;7.17;3.10;;;1.30;99.90;;;;;;2082119;28;20805;-71
2021/04/26 04:01:24;;;;;;;4.28;3.20;;;1.30;99.90;;;;;;2081273;28;20186;-71
2021/04/26 04:02:29;;;;;;;4.63;2.90;;;1.40;99.90;;;;;;2081744;28;20282;-71
2021/04/26 04:03:30;;;;;;;3.95;2.90;;;1.30;99.90;;;;;;2081906;28;20279;-71
2021/04/26 04:04:30;;;;;;;5.90;3.23;;;1.40;99.90;;;;;;2082153;28;20180;-71
2021/04/26 04:05:31;;;;;;;4.90;2.97;;;1.40;99.90;;;;;;2081849;28;20206;-71
2021/04/26 04:06:32;;;;;;;5.63;2.87;;;1.40;99.90;;;;;;2081800;28;20179;-71
2021/04/26 04:07:35;;;;;;;5.28;3.20;;;1.40;99.90;;;;;;2081562;28;20187;-70
2021/04/26 04:08:36;;;;;;;7.43;3.05;;;1.40;99.90;;;;;;2073835;28;20275;-70
2021/04/26 04:09:36;;;;;;;4.73;3.03;;;1.30;99.90;;;;;;2081199;28;20178;-71
2021/04/26 04:10:37;;;;;;;3.67;2.67;;;1.40;99.90;;;;;;2082521;28;20176;-70
2021/04/26 04:11:38;;;;;;;4.93;2.90;;;1.40;99.90;;;;;;2082496;28;20169;-71
2021/04/26 04:12:38;;;;;;;5.40;3.40;;;1.40;99.90;;;;;;2083262;28;20181;-70
2021/04/26 04:13:40;;;;;;;4.90;2.90;;;1.30;99.90;;;;;;2083530;28;20206;-70
2021/04/26 04:14:41;;;;;;;6.05;2.90;;;1.30;99.90;;;;;;2082754;28;20221;-71
2021/04/26 04:15:42;;;;;;;6.20;3.07;;;1.30;99.90;;;;;;2082199;28;20179;-70
2021/04/26 04:16:43;;;;;;;6.27;2.80;;;1.30;99.90;;;;;;2083600;28;20202;-71
2021/04/26 04:17:43;;;;;;;4.63;2.87;;;1.30;99.90;;;;;;2083825;28;20185;-70
2021/04/26 04:18:44;;;;;;;6.60;2.90;;;1.30;99.90;;;;;;2083473;28;20183;-70
2021/04/26 04:19:45;;;;;;;6.07;2.90;;;1.30;99.90;;;;;;2082943;28;20722;-70
2021/04/26 04:20:45;;;;;;;4.07;2.50;;;1.40;99.90;;;;;;2083036;28;20172;-70
2021/04/26 04:21:46;;;;;;;5.00;3.00;;;1.30;99.90;;;;;;2083687;28;20178;-69
2021/04/26 04:22:47;;;;;;;5.30;2.70;;;1.30;99.90;;;;;;2083804;28;20647;-69
2021/04/26 04:23:48;;;;;;;4.10;2.80;;;1.30;99.90;;;;;;2082911;28;20175;-70
2021/04/26 04:24:49;;;;;;;6.50;3.10;;;1.30;99.90;;;;;;2082853;28;20249;-70
2021/04/26 04:25:49;;;;;;;5.20;2.77;;;1.30;99.90;;;;;;2082856;28;20212;-71
2021/04/26 04:26:50;;;;;;;7.40;3.27;;;1.30;99.90;;;;;;2083347;28;20462;-69
2021/04/26 04:27:51;;;;;;;4.83;3.17;;;1.30;99.90;;;;;;2082796;28;20691;-69
2021/04/26 04:28:51;;;;;;;5.37;2.77;;;1.30;99.90;;;;;;2082762;28;20186;-69
2021/04/26 04:29:52;;;;;;;5.87;3.20;;;1.30;99.90;;;;;;2083243;28;20183;-69
2021/04/26 04:30:53;;;;;;;4.77;2.87;;;1.30;99.90;;;;;;2083325;28;20196;-70
2021/04/26 04:31:53;;;;;;;4.90;2.77;;;1.30;99.90;;;;;;2083550;28;20208;-70
2021/04/26 04:32:54;;;;;;;6.03;3.07;;;1.30;99.90;;;;;;2083475;28;20187;-69
2021/04/26 04:33:55;;;;;;;6.20;2.90;;;1.40;99.90;;;;;;2083838;28;20236;-70
2021/04/26 04:34:55;;;;;;;7.47;3.10;;;1.40;99.90;;;;;;2083286;28;20195;-70
2021/04/26 04:35:57;;;;;;;5.20;3.20;;;1.50;99.90;;;;;;2082968;28;20223;-69
2021/04/26 04:36:58;;;;;;;6.10;2.90;;;1.40;99.90;;;;;;2082784;28;20233;-69
2021/04/26 04:37:59;;;;;;;4.45;2.67;;;1.50;99.90;;;;;;2082848;28;20745;-72
2021/04/26 04:39:00;;;;;;;4.13;3.20;;;1.50;99.90;;;;;;2083011;28;20238;-70
2021/04/26 04:40:03;;;;;;;4.83;3.60;;;1.50;99.90;;;;;;2082925;28;20195;-69
2021/04/26 04:41:04;;;;;;;6.18;3.30;;;1.50;99.90;;;;;;2075039;28;20190;-70
2021/04/26 04:42:06;;;;;;;5.47;2.90;;;1.50;99.90;;;;;;2082778;28;20195;-70
2021/04/26 04:43:06;;;;;;;6.85;3.33;;;1.50;99.90;;;;;;2083438;28;20618;-69
2021/04/26 04:44:07;;;;;;;4.13;3.07;;;1.50;99.90;;;;;;2083401;28;20173;-70
2021/04/26 04:45:08;;;;;;;5.17;3.00;;;1.50;99.90;;;;;;2083077;28;20181;-70
2021/04/26 04:46:09;;;;;;;4.88;3.33;;;1.50;99.90;;;;;;2082282;28;20216;-70
2021/04/26 04:47:10;;;;;;;8.27;3.63;;;1.50;99.90;;;;;;2082743;28;20212;-69
2021/04/26 04:48:11;;;;;;;5.50;3.07;;;1.50;99.90;;;;;;2083120;28;20187;-70
2021/04/26 04:49:11;;;;;;;4.37;2.80;;;1.50;99.90;;;;;;2083073;28;20272;-71
2021/04/26 04:50:13;;;;;;;5.93;3.37;;;1.50;99.90;;;;;;2083244;28;20625;-70
2021/04/26 04:51:14;;;;;;;5.50;3.28;;;1.60;99.90;;;;;;2082933;28;20173;-69
2021/04/26 04:52:14;;;;;;;6.93;3.70;;;1.60;99.90;;;;;;2083324;28;20177;-70
2021/04/26 04:53:15;;;;;;;5.93;3.63;;;1.60;99.90;;;;;;2083328;28;20651;-70
2021/04/26 04:54:16;;;;;;;9.13;3.77;;;1.60;99.90;;;;;;2083196;28;20188;-69
2021/04/26 04:55:17;;;;;;;6.80;3.80;;;1.60;99.90;;;;;;2083368;28;20181;-70
2021/04/26 04:56:18;;;;;;;6.33;3.23;;;1.60;99.90;;;;;;2082895;28;20226;-71
2021/04/26 04:57:18;;;;;;;5.03;3.53;;;1.60;99.90;;;;;;2083526;28;20531;-69
2021/04/26 04:58:19;;;;;;;5.90;3.60;;;1.60;99.90;;;;;;2083417;28;20268;-71
2021/04/26 04:59:20;;;;;;;10.05;5.03;;;1.60;99.90;;;;;;2083364;28;20173;-70
2021/04/26 05:00:21;;;;;;;11.50;5.38;;;1.60;99.90;;;;;;2074330;28;20177;-70
2021/04/26 05:01:22;;;;;;;7.70;4.72;;;1.70;99.90;;;;;;2074517;28;20686;-70
2021/04/26 05:02:23;;;;;;;13.17;5.63;;;1.80;99.90;;;;;;2083342;28;20196;-70
2021/04/26 05:03:23;;;;;;;10.97;4.70;;;1.80;99.90;;;;;;2083591;28;20206;-70
2021/04/26 05:04:24;;;;;;;9.27;4.63;;;1.90;99.90;;;;;;2082862;28;20200;-69
2021/04/26 05:05:25;;;;;;;8.17;4.17;;;2.00;99.90;;;;;;2082826;28;20219;-70
2021/04/26 05:06:26;;;;;;;11.20;4.83;;;1.90;99.90;;;;;;2074433;28;20197;-70
2021/04/26 05:07:26;;;;;;;7.80;4.83;;;2.00;99.90;;;;;;2082647;28;20232;-69
2021/04/26 05:08:27;;;;;;;7.60;4.30;;;2.00;99.90;;;;;;2083072;28;20214;-69
2021/04/26 05:09:28;;;;;;;6.87;4.67;;;2.00;99.90;;;;;;2083128;28;20207;-70
2021/04/26 05:10:29;;;;;;;9.13;4.33;;;2.00;99.90;;;;;;2083020;28;20220;-69
2021/04/26 05:11:30;;;;;;;9.45;4.43;;;2.10;99.90;;;;;;2082987;28;20173;-69
2021/04/26 05:12:30;;;;;;;6.43;4.20;;;2.10;99.90;;;;;;2083134;28;20232;-70
2021/04/26 05:13:32;;;;;;;6.27;4.20;;;2.10;99.90;;;;;;2082686;28;20183;-70
2021/04/26 05:14:34;;;;;;;6.90;4.00;;;2.20;99.90;;;;;;2081739;28;20234;-70
2021/04/26 05:15:35;;;;;;;7.03;4.00;;;2.20;99.90;;;;;;2081146;28;20185;-70
2021/04/26 05:16:35;;;;;;;7.20;4.22;;;2.20;99.90;;;;;;2078699;28;20188;-70
2021/04/26 05:17:36;;;;;;;9.07;3.90;;;2.30;99.90;;;;;;2081576;28;20215;-70
2021/04/26 05:18:37;;;;;;;8.07;4.03;;;2.30;99.90;;;;;;2081538;28;20184;-70
2021/04/26 05:19:38;;;;;;;7.47;4.03;;;2.30;99.90;;;;;;2081483;28;20181;-69
2021/04/26 05:20:41;;;;;;;8.50;4.40;;;2.30;99.90;;;;;;2080694;28;20188;-70
2021/04/26 05:21:42;;;;;;;7.38;3.83;;;2.30;99.90;;;;;;2072878;28;20181;-69
2021/04/26 05:22:43;;;;;;;8.57;4.65;;;2.30;99.90;;;;;;2072429;28;20209;-69
2021/04/26 05:23:44;;;;;;;6.90;4.10;;;2.30;99.90;;;;;;2080711;28;20310;-69
2021/04/26 05:24:45;;;;;;;7.10;4.00;;;2.40;99.90;;;;;;2080797;28;20566;-69
2021/04/26 05:25:50;;;;;;;8.40;4.00;;;2.30;99.90;;;;;;2080841;28;20264;-69
2021/04/26 05:26:50;;;;;;;7.20;3.58;;;2.40;99.90;;;;;;2080683;28;20189;-69
2021/04/26 05:27:51;;;;;;;6.17;3.67;;;2.40;99.90;;;;;;2080672;28;20185;-69
2021/04/26 05:28:52;;;;;;;5.63;3.77;;;2.50;99.90;;;;;;2072448;28;20606;-69
2021/04/26 05:29:53;;;;;;;6.63;3.70;;;2.60;99.90;;;;;;2080805;28;20208;-69
2021/04/26 05:30:54;;;;;;;6.45;3.65;;;2.60;99.90;;;;;;2081219;28;20773;-70
2021/04/26 05:31:55;;;;;;;8.90;3.87;;;2.50;99.90;;;;;;2081067;28;20224;-69
2021/04/26 05:32:56;;;;;;;10.17;4.10;;;2.60;99.90;;;;;;2081339;28;20185;-69